Davison Army Air Field Fort Belvoir US
ICAO: KDAA
IATA: DAA
Category: Medium
Scheduled Services: No

Elevation: 73 ft
TransAlt. 18000 ft.

Airport Communications:
POTOMAC APP:119.85
ATIS:128.175
CLNC DEL:24.52
CTAF:126.3
POTOMAC DEP:118.1
GND:121.9
ARNG OPS:52.75
BASE OPS:139.4
PMSV METRO:139.4
PTD:139.4
TWR:126.3

KDAA Zoom In..

Runways:

(A) RW 14 length 5619 ft width 75 ft
---- / hdg 142

(B) RW 32 length 5619 ft width 75 ft
ILS 108.90 / hdg 322

Location; KDAA
Day. 16 / Time. 17.56 Zulu
* Altimeter: 29.96
* Temperature: 6/° c. 42.8°f.
* Wind from: 150° Speed 06 kn.
Dewpoint: //° c.
Visibility: 10 Statute Miles.
Clouds: Clear (automated report).

KDAA 161756Z AUTO 15006KT 10SM CLR 34/21 A2996 RMK AO2 DZB12E17 SLP148 P0000 6//// T03410211 10342 20239 57011 $


Wind From 150°
Speed 06 kn.

 
 
jpsmedia.com for Web Design worldairports.se 2018   terms of use